默认 日期 大小 文件数 浏览量 最新下载 xml
norte磁力链接相关资源由用户搜索指令自动获取,结果来源于网络,本站不存储任何资料,亦不承担任何责任,请于24小时内删除,搜索到495个磁力,用时0ms。
    {"LEIA-ME.txt": 1233, "BLUDV.TO.url": 121, "GRUPO TELEGRAM.url": 130, "GRUPO WHATSAPP.url": 123, "TorrentDosFilmes.SITE.url": 130, "A Sociedade Norte-Americana dos Negros Mágicos 2024 WEB-DL 1080p x264 DUAL 5.1.mkv": 2576133815}
创建时间: 2024-06-11 09:19:30 大小:2.4 GB 文件数量:6 热度:3 最近下载:2025-03-26 07:55:02
    {"Comando.LA.url": 45, "TorrentDosFilmes.SE.url": 152, "BAIXAR OUTROS FILMES.url": 210, "A.Sociedade.Norte-Americana.dos.Negros.Magicos.2024.1080p.WEB-DL.EAC3.AAC.DUAL.5.1.mkv": 3296761807}
创建时间: 2024-06-11 18:21:34 大小:3.07 GB 文件数量:4 热度:3 最近下载:2025-03-26 07:50:04
    {"ComandoFilmesBr.net.url": 118, "A.Sociedade.Norte-Americana.dos.Negros.Magicos.2024.1080p.WEB-DL.x264.DUAL.mkv": 2789923901}
创建时间: 2024-06-12 11:55:25 大小:2.6 GB 文件数量:2 热度:2 最近下载:2025-01-12 10:55:08
    ... ": 8069635, "29. El Poder Del Norte - El texano.mp3": 7412785, "01 ...
创建时间: 2024-07-10 15:54:15 大小:236.63 MB 文件数量:32 热度:6 最近下载:2025-10-03 07:14:02
    {"Off.Course.AKA.Perdiendo.El.Norte.2015.1080p.BluRay.X264.Will1869.mp4": 2343399043, "Off.Course.AKA.Perdiendo.El.Norte.2015.1080p.BluRay.X264.Will1869.srt": 123839}
创建时间: 2024-08-21 16:35:27 大小:2.18 GB 文件数量:2 热度:7 最近下载:2025-05-17 06:13:01
    {"Mi familia del norte (2018).MKV": 4981528063}
创建时间: 2024-09-05 14:20:55 大小:4.64 GB 文件数量:1 热度:3 最近下载:2025-01-12 23:15:01
    {"Bienvenidos al norte (2008).mkv": 5243396703}
创建时间: 2024-09-07 16:49:14 大小:4.88 GB 文件数量:1 热度:3 最近下载:2025-09-12 15:14:12
    {"info!!!!.txt": 2427, "Capitulo 1 Aqui Comienza La Leyenda.mp4": 351492356}
创建时间: 2024-10-04 15:57:27 大小:335.21 MB 文件数量:2 热度:2 最近下载:2025-02-04 02:18:03
    ... Pancho Villa. El Centauro del Norte S01E01 (2023) HDRip XviD PSF ... Pancho Villa. El Centauro del Norte S01E02 (2023) HDRip XviD PSF ... Pancho Villa. El Centauro del Norte S01E03 (2023) HDRip XviD PSF ... Pancho Villa. El Centauro del Norte S01E04 (2023) HDRip XviD PSF ...
创建时间: 2024-10-15 15:37:37 大小:5.28 GB 文件数量:10 热度:5 最近下载:2025-09-18 23:57:08
    ... , "grupo-ternura-el-rey-del-norte-2002_meta.xml": 842, "grupo-ternura ... -el-rey-del-norte-2002_meta.sqlite": 53248, "Grupo Ternura ... - El Rey del Norte (2002) -Magenta +LeoArroyo": {"A.jpg ...
创建时间: 2024-10-29 09:32:24 大小:412.96 MB 文件数量:53 热度:3 最近下载:2025-01-15 11:13:08
    ... -en-la-guerra-civil-espanola.-norte-36-37_meta.sqlite": 20480, ... la Guerra Civil Española. Norte 36-37_page_numbers.json": 27015, ... la Guerra Civil Española. Norte 36-37_hocr_pageindex.json.gz": ... la Guerra Civil Española. Norte 36-37_hocr_searchtext.txt.gz": ...
创建时间: 2024-10-30 19:31:15 大小:286.92 MB 文件数量:14 热度:8 最近下载:2025-09-18 23:05:03
    {"Pancho.Villa.The.Centaur.of.the.North.S01E05.Villawood.1080p.DSNP.WEB-DL.DDP5.1.H.264.RGzsRutracker.mkv": 2014038665, "Pancho.Villa.The.Centaur.of.the.North.S01E02.Trial.by.Fire.1080p.DSNP.WEB-DL.DDP5.1.H.264.RGzsRutracker.mkv": 2279737993, "Pancho.Villa ...
创建时间: 2024-12-19 11:33:13 大小:21.47 GB 文件数量:10 热度:6 最近下载:2025-09-18 23:57:05
    {"VIDEO_TS.BUP": 14336, "VIDEO_TS.IFO": 14336, "VIDEO_TS.VOB": 116736, "VTS_01_0.BUP": 59392, "VTS_01_0.IFO": 59392, "VTS_01_0.VOB": 55605248, "VTS_01_1.VOB": 1073565696, "VTS_01_2.VOB": 1073565696, "VTS_01_3.VOB": 1073565696, "VTS_01_4.VOB": 8095744}
创建时间: 2025-01-15 14:50:17 大小:3.06 GB 文件数量:10 热度:4 最近下载:2025-03-26 06:47:02
    ... .avi": 2510684406, "2006 fiesta bowl-norte dame vs ohio state.avi ... fiesta bowl ohio state vs norte dame hd.avi": 1691712944, "2022 ...
创建时间: 2025-01-20 16:12:59 大小:15.37 GB 文件数量:7 热度:2 最近下载:2025-03-08 10:31:03
    {"El.norte.sobre.el.vacío.2022.1080P-Dual-Lat.mp4": 2229904252, "El.norte.sobre.el.vacío.2022.1080P-Dual-Lat.srt": 89517, "Descargar Películas, Series y Animes Gratis....url": 50}
创建时间: 2025-02-01 15:50:32 大小:2.08 GB 文件数量:3 热度:9 最近下载:2025-09-18 22:46:08
    {"Perdiendo el norte (2015).HDrip.avi": 1574524928, "Perdiendo el norte (2015).HDrip.srt": 125252}
创建时间: 2025-02-13 11:07:50 大小:1.47 GB 文件数量:2 热度:2 最近下载:2025-03-07 09:47:02
    ... ": 7994969, "29. El Poder Del Norte - El Texano.mp3": 7338776, "01 ...
创建时间: 2025-02-13 11:59:03 大小:234.48 MB 文件数量:31 热度:5 最近下载:2025-09-21 23:48:02
    {"03. Mexico (2018 Remaster).flac": 14295859, "02. Galveston (2018 Remaster).flac": 14314151, "09. Muchos Besos (2018 Remaster).flac": 18819249, "04. Sonora Querida (2018 Remaster).flac": 14031258, "01. I Saw the Light (2018 Remaster).flac": 13257375, "08. ...
创建时间: 2025-03-04 10:08:29 大小:132.29 MB 文件数量:10 热度:4 最近下载:2025-08-02 06:18:06
    {"folder.jpg": 141899, "05. Mayra (Remastered 2025).flac": 116059951, "10. Mala Mala (Remastered 2025).flac": 117503176, "01. Caricatura (Remastered 2025).flac": 101257681, "09. Papalotito (Remastered 2025).flac": 90157657, "04. Trono Caído (Remastered ...
创建时间: 2025-03-26 10:41:04 大小:1.03 GB 文件数量:11 热度:2 最近下载:2025-08-26 15:10:02
    {"Descargar Películas, Series y Animes Gratis....url": 50, "El.Hombre.del.Norte.The.Northman.2022.1080P-Dual-Lat.mkv": 2466625289}
创建时间: 2025-03-31 08:41:37 大小:2.3 GB 文件数量:2 热度:1 最近下载:2025-03-31 22:45:01